sensor_id;sensor_type;location;lat;lon;timestamp;pressure;altitude;pressure_sealevel;temperature;humidity
70103;BME280;57470;50.034;15.256;2023-04-04T00:01:02;100402.97;;;2.47;55.75
70103;BME280;57470;50.034;15.256;2023-04-04T00:03:27;100404.94;;;2.36;55.39
70103;BME280;57470;50.034;15.256;2023-04-04T00:05:53;100399.56;;;2.42;55.08
70103;BME280;57470;50.034;15.256;2023-04-04T00:08:18;100401.53;;;2.32;56.16
70103;BME280;57470;50.034;15.256;2023-04-04T00:10:44;100393.03;;;2.19;54.96
70103;BME280;57470;50.034;15.256;2023-04-04T00:13:10;100393.91;;;2.20;54.34
70103;BME280;57470;50.034;15.256;2023-04-04T00:15:35;100391.28;;;2.20;54.49
70103;BME280;57470;50.034;15.256;2023-04-04T00:18:01;100393.06;;;2.18;54.89
70103;BME280;57470;50.034;15.256;2023-04-04T00:20:28;100379.00;;;2.22;55.06
70103;BME280;57470;50.034;15.256;2023-04-04T00:22:54;100378.00;;;2.28;54.82
70103;BME280;57470;50.034;15.256;2023-04-04T00:25:20;100384.22;;;2.23;55.52
70103;BME280;57470;50.034;15.256;2023-04-04T00:27:46;100379.75;;;2.27;55.26
70103;BME280;57470;50.034;15.256;2023-04-04T00:30:12;100372.59;;;2.35;55.74
70103;BME280;57470;50.034;15.256;2023-04-04T00:32:37;100372.72;;;2.29;55.72
70103;BME280;57470;50.034;15.256;2023-04-04T00:35:03;100375.72;;;2.09;55.73
70103;BME280;57470;50.034;15.256;2023-04-04T00:37:28;100369.41;;;2.19;56.16
70103;BME280;57470;50.034;15.256;2023-04-04T00:39:54;100373.72;;;2.23;55.05
70103;BME280;57470;50.034;15.256;2023-04-04T00:42:19;100365.28;;;2.06;55.22
70103;BME280;57470;50.034;15.256;2023-04-04T00:44:45;100368.94;;;1.99;56.25
70103;BME280;57470;50.034;15.256;2023-04-04T00:47:10;100367.69;;;2.18;56.73
70103;BME280;57470;50.034;15.256;2023-04-04T00:49:36;100360.50;;;2.26;56.66
70103;BME280;57470;50.034;15.256;2023-04-04T00:52:01;100358.88;;;2.21;57.37
70103;BME280;57470;50.034;15.256;2023-04-04T00:54:28;100351.97;;;2.17;56.19
70103;BME280;57470;50.034;15.256;2023-04-04T00:56:54;100353.03;;;2.07;56.27
70103;BME280;57470;50.034;15.256;2023-04-04T00:59:25;100352.28;;;2.02;56.50
70103;BME280;57470;50.034;15.256;2023-04-04T01:01:52;100353.81;;;2.13;57.40
70103;BME280;57470;50.034;15.256;2023-04-04T01:04:17;100354.78;;;2.06;57.48
70103;BME280;57470;50.034;15.256;2023-04-04T01:06:43;100352.22;;;2.05;57.70
70103;BME280;57470;50.034;15.256;2023-04-04T01:09:10;100344.25;;;2.09;57.32
70103;BME280;57470;50.034;15.256;2023-04-04T01:11:36;100341.91;;;1.96;57.52
70103;BME280;57470;50.034;15.256;2023-04-04T01:14:01;100339.22;;;1.99;58.10
70103;BME280;57470;50.034;15.256;2023-04-04T01:16:27;100330.28;;;2.07;58.86
70103;BME280;57470;50.034;15.256;2023-04-04T01:18:52;100331.84;;;2.16;58.26
70103;BME280;57470;50.034;15.256;2023-04-04T01:21:20;100333.06;;;2.01;58.38
70103;BME280;57470;50.034;15.256;2023-04-04T01:24:00;100328.56;;;2.06;58.59
70103;BME280;57470;50.034;15.256;2023-04-04T01:26:27;100333.81;;;2.06;59.06
70103;BME280;57470;50.034;15.256;2023-04-04T01:28:53;100332.03;;;2.08;59.07
70103;BME280;57470;50.034;15.256;2023-04-04T01:31:34;100339.41;;;1.88;60.89
70103;BME280;57470;50.034;15.256;2023-04-04T01:34:19;100338.34;;;1.98;62.86
70103;BME280;57470;50.034;15.256;2023-04-04T01:37:29;100326.97;;;1.98;63.00
70103;BME280;57470;50.034;15.256;2023-04-04T01:40:04;100332.41;;;1.88;62.45
70103;BME280;57470;50.034;15.256;2023-04-04T01:42:33;100333.97;;;1.99;62.78
70103;BME280;57470;50.034;15.256;2023-04-04T01:44:59;100328.81;;;1.96;63.42
70103;BME280;57470;50.034;15.256;2023-04-04T01:47:25;100333.22;;;1.92;65.08
70103;BME280;57470;50.034;15.256;2023-04-04T01:49:50;100329.75;;;1.92;65.11
70103;BME280;57470;50.034;15.256;2023-04-04T01:52:18;100329.88;;;1.85;65.97
70103;BME280;57470;50.034;15.256;2023-04-04T01:54:43;100333.34;;;1.87;66.30
70103;BME280;57470;50.034;15.256;2023-04-04T01:57:08;100323.66;;;1.89;66.82
70103;BME280;57470;50.034;15.256;2023-04-04T01:59:34;100329.13;;;1.79;67.35
70103;BME280;57470;50.034;15.256;2023-04-04T02:02:01;100327.41;;;1.78;67.65
70103;BME280;57470;50.034;15.256;2023-04-04T02:04:28;100333.41;;;1.83;67.40
70103;BME280;57470;50.034;15.256;2023-04-04T02:06:55;100333.47;;;1.80;68.34
70103;BME280;57470;50.034;15.256;2023-04-04T02:09:22;100336.06;;;1.80;68.49
70103;BME280;57470;50.034;15.256;2023-04-04T02:11:48;100335.22;;;1.79;68.35
70103;BME280;57470;50.034;15.256;2023-04-04T02:14:15;100335.19;;;1.81;69.00
70103;BME280;57470;50.034;15.256;2023-04-04T02:16:42;100338.81;;;1.74;70.08
70103;BME280;57470;50.034;15.256;2023-04-04T02:19:08;100345.78;;;1.76;69.92
70103;BME280;57470;50.034;15.256;2023-04-04T02:21:35;100347.69;;;1.68;70.09
70103;BME280;57470;50.034;15.256;2023-04-04T02:24:01;100345.00;;;1.71;69.64
70103;BME280;57470;50.034;15.256;2023-04-04T02:26:28;100344.97;;;1.73;68.85
70103;BME280;57470;50.034;15.256;2023-04-04T02:28:55;100334.81;;;1.55;66.65
70103;BME280;57470;50.034;15.256;2023-04-04T02:31:22;100339.31;;;1.48;66.75
70103;BME280;57470;50.034;15.256;2023-04-04T02:33:49;100343.53;;;1.57;67.01
70103;BME280;57470;50.034;15.256;2023-04-04T02:36:15;100352.09;;;1.65;66.67
70103;BME280;57470;50.034;15.256;2023-04-04T02:38:42;100351.94;;;1.74;67.54
70103;BME280;57470;50.034;15.256;2023-04-04T02:41:08;100344.97;;;1.73;68.77
70103;BME280;57470;50.034;15.256;2023-04-04T02:43:35;100349.50;;;1.63;68.86
70103;BME280;57470;50.034;15.256;2023-04-04T02:46:01;100345.88;;;1.70;69.33
70103;BME280;57470;50.034;15.256;2023-04-04T02:48:29;100348.56;;;1.67;68.68
70103;BME280;57470;50.034;15.256;2023-04-04T02:50:56;100348.41;;;1.76;68.67
70103;BME280;57470;50.034;15.256;2023-04-04T02:53:22;100349.81;;;1.94;69.07
70103;BME280;57470;50.034;15.256;2023-04-04T02:55:47;100351.41;;;2.01;68.80
70103;BME280;57470;50.034;15.256;2023-04-04T02:58:13;100345.34;;;1.98;68.56
70103;BME280;57470;50.034;15.256;2023-04-04T03:00:38;100350.00;;;1.85;68.39
70103;BME280;57470;50.034;15.256;2023-04-04T03:03:04;100352.53;;;1.88;68.43
70103;BME280;57470;50.034;15.256;2023-04-04T03:05:29;100351.06;;;1.73;68.14
70103;BME280;57470;50.034;15.256;2023-04-04T03:07:56;100354.38;;;1.84;68.12
70103;BME280;57470;50.034;15.256;2023-04-04T03:10:23;100343.91;;;1.81;68.28
70103;BME280;57470;50.034;15.256;2023-04-04T03:12:49;100347.44;;;1.80;68.47
70103;BME280;57470;50.034;15.256;2023-04-04T03:15:15;100339.88;;;1.64;69.42
70103;BME280;57470;50.034;15.256;2023-04-04T03:17:40;100348.56;;;1.69;69.13
70103;BME280;57470;50.034;15.256;2023-04-04T03:20:06;100356.16;;;1.81;68.65
70103;BME280;57470;50.034;15.256;2023-04-04T03:22:31;100348.31;;;1.81;69.09
70103;BME280;57470;50.034;15.256;2023-04-04T03:24:57;100343.88;;;1.84;69.37
70103;BME280;57470;50.034;15.256;2023-04-04T03:27:22;100345.03;;;1.70;69.67
70103;BME280;57470;50.034;15.256;2023-04-04T03:29:48;100345.41;;;1.50;70.59
70103;BME280;57470;50.034;15.256;2023-04-04T03:32:13;100338.31;;;1.54;71.01
70103;BME280;57470;50.034;15.256;2023-04-04T03:34:39;100347.88;;;1.58;71.15
70103;BME280;57470;50.034;15.256;2023-04-04T03:37:04;100344.22;;;1.66;70.78
70103;BME280;57470;50.034;15.256;2023-04-04T03:39:30;100353.03;;;1.62;70.48
70103;BME280;57470;50.034;15.256;2023-04-04T03:41:56;100358.91;;;1.76;70.36
70103;BME280;57470;50.034;15.256;2023-04-04T03:44:22;100357.97;;;1.79;70.48
70103;BME280;57470;50.034;15.256;2023-04-04T03:46:47;100360.66;;;1.76;71.15
70103;BME280;57470;50.034;15.256;2023-04-04T03:49:13;100349.97;;;1.86;70.91
70103;BME280;57470;50.034;15.256;2023-04-04T03:51:38;100359.59;;;1.86;71.58
70103;BME280;57470;50.034;15.256;2023-04-04T03:54:03;100349.91;;;1.88;71.24
70103;BME280;57470;50.034;15.256;2023-04-04T03:56:30;100351.41;;;2.01;71.04
70103;BME280;57470;50.034;15.256;2023-04-04T03:58:57;100348.41;;;1.76;71.14
70103;BME280;57470;50.034;15.256;2023-04-04T04:01:22;100351.91;;;1.77;71.71
70103;BME280;57470;50.034;15.256;2023-04-04T04:03:47;100353.53;;;1.81;71.89
70103;BME280;57470;50.034;15.256;2023-04-04T04:06:13;100358.03;;;1.76;71.93
70103;BME280;57470;50.034;15.256;2023-04-04T04:08:38;100363.16;;;1.82;71.76
70103;BME280;57470;50.034;15.256;2023-04-04T04:11:04;100357.31;;;1.68;72.16
70103;BME280;57470;50.034;15.256;2023-04-04T04:13:30;100360.44;;;1.39;72.36
70103;BME280;57470;50.034;15.256;2023-04-04T04:15:55;100359.22;;;1.58;72.35
70103;BME280;57470;50.034;15.256;2023-04-04T04:18:21;100362.44;;;1.74;72.29
70103;BME280;57470;50.034;15.256;2023-04-04T04:20:46;100360.63;;;1.77;71.45
70103;BME280;57470;50.034;15.256;2023-04-04T04:23:12;100369.56;;;1.67;71.42
70103;BME280;57470;50.034;15.256;2023-04-04T04:25:37;100360.25;;;1.51;71.04
70103;BME280;57470;50.034;15.256;2023-04-04T04:28:02;100368.75;;;1.62;71.48
70103;BME280;57470;50.034;15.256;2023-04-04T04:30:28;100367.31;;;1.44;71.17
70103;BME280;57470;50.034;15.256;2023-04-04T04:32:53;100356.03;;;1.42;71.61
70103;BME280;57470;50.034;15.256;2023-04-04T04:35:19;100361.25;;;1.42;72.52
70103;BME280;57470;50.034;15.256;2023-04-04T04:37:44;100358.75;;;1.35;71.28
70103;BME280;57470;50.034;15.256;2023-04-04T04:40:10;100365.50;;;1.49;71.29
70103;BME280;57470;50.034;15.256;2023-04-04T04:42:35;100359.69;;;1.32;71.04
70103;BME280;57470;50.034;15.256;2023-04-04T04:45:01;100359.66;;;1.34;70.32
70103;BME280;57470;50.034;15.256;2023-04-04T04:47:29;100363.91;;;1.41;69.99
70103;BME280;57470;50.034;15.256;2023-04-04T04:49:54;100358.00;;;1.28;69.52
70103;BME280;57470;50.034;15.256;2023-04-04T04:52:20;100364.09;;;1.30;69.91
70103;BME280;57470;50.034;15.256;2023-04-04T04:54:45;100365.78;;;1.33;69.61
70103;BME280;57470;50.034;15.256;2023-04-04T04:57:10;100365.09;;;1.23;69.55
70103;BME280;57470;50.034;15.256;2023-04-04T04:59:36;100363.25;;;1.27;69.79
70103;BME280;57470;50.034;15.256;2023-04-04T05:02:01;100355.59;;;1.16;69.54
70103;BME280;57470;50.034;15.256;2023-04-04T05:04:27;100359.91;;;1.17;68.82
70103;BME280;57470;50.034;15.256;2023-04-04T05:06:52;100361.75;;;1.12;68.45
70103;BME280;57470;50.034;15.256;2023-04-04T05:09:18;100364.63;;;0.97;69.18
70103;BME280;57470;50.034;15.256;2023-04-04T05:11:43;100368.69;;;1.16;69.75
70103;BME280;57470;50.034;15.256;2023-04-04T05:14:09;100361.53;;;1.26;68.78
70103;BME280;57470;50.034;15.256;2023-04-04T05:16:34;100364.94;;;1.32;68.30
70103;BME280;57470;50.034;15.256;2023-04-04T05:18:59;100368.31;;;1.37;68.12
70103;BME280;57470;50.034;15.256;2023-04-04T05:21:25;100369.31;;;1.32;67.87
70103;BME280;57470;50.034;15.256;2023-04-04T05:23:50;100367.69;;;1.25;68.12
70103;BME280;57470;50.034;15.256;2023-04-04T05:26:16;100370.78;;;1.46;67.58
70103;BME280;57470;50.034;15.256;2023-04-04T05:28:41;100364.69;;;1.44;67.50
70103;BME280;57470;50.034;15.256;2023-04-04T05:31:07;100371.81;;;1.38;67.74
70103;BME280;57470;50.034;15.256;2023-04-04T05:33:32;100375.25;;;1.41;67.43
70103;BME280;57470;50.034;15.256;2023-04-04T05:35:58;100373.78;;;1.25;67.72
70103;BME280;57470;50.034;15.256;2023-04-04T05:38:24;100378.03;;;1.32;67.73
70103;BME280;57470;50.034;15.256;2023-04-04T05:40:52;100385.63;;;1.47;67.24
70103;BME280;57470;50.034;15.256;2023-04-04T05:43:21;100373.59;;;1.36;67.99
70103;BME280;57470;50.034;15.256;2023-04-04T05:45:46;100373.69;;;1.31;67.16
70103;BME280;57470;50.034;15.256;2023-04-04T05:48:11;100376.84;;;1.52;67.27
70103;BME280;57470;50.034;15.256;2023-04-04T05:50:37;100379.19;;;1.67;66.38
70103;BME280;57470;50.034;15.256;2023-04-04T05:53:02;100378.09;;;1.78;65.66
70103;BME280;57470;50.034;15.256;2023-04-04T05:55:29;100377.94;;;1.37;65.33
70103;BME280;57470;50.034;15.256;2023-04-04T05:57:54;100375.28;;;1.40;65.79
70103;BME280;57470;50.034;15.256;2023-04-04T06:00:20;100376.69;;;1.59;65.10
70103;BME280;57470;50.034;15.256;2023-04-04T06:02:46;100380.22;;;1.57;66.35
70103;BME280;57470;50.034;15.256;2023-04-04T06:05:12;100375.25;;;1.89;65.72
70103;BME280;57470;50.034;15.256;2023-04-04T06:07:37;100376.25;;;1.82;64.98
70103;BME280;57470;50.034;15.256;2023-04-04T06:10:04;100375.91;;;2.00;66.32
70103;BME280;57470;50.034;15.256;2023-04-04T06:12:29;100375.53;;;2.20;65.04
70103;BME280;57470;50.034;15.256;2023-04-04T06:14:55;100367.22;;;1.52;65.30
70103;BME280;57470;50.034;15.256;2023-04-04T06:17:20;100360.72;;;2.16;65.65
70103;BME280;57470;50.034;15.256;2023-04-04T06:19:46;100373.31;;;2.42;65.53
70103;BME280;57470;50.034;15.256;2023-04-04T06:22:11;100366.63;;;2.27;64.64
70103;BME280;57470;50.034;15.256;2023-04-04T06:24:37;100370.19;;;2.66;64.13
70103;BME280;57470;50.034;15.256;2023-04-04T06:27:02;100366.41;;;2.38;62.25
70103;BME280;57470;50.034;15.256;2023-04-04T06:29:27;100367.03;;;2.50;62.17
70103;BME280;57470;50.034;15.256;2023-04-04T06:31:53;100372.69;;;2.71;61.80
70103;BME280;57470;50.034;15.256;2023-04-04T06:34:20;100365.66;;;2.73;62.86
70103;BME280;57470;50.034;15.256;2023-04-04T06:36:45;100366.28;;;2.44;61.12
70103;BME280;57470;50.034;15.256;2023-04-04T06:39:11;100362.19;;;3.08;61.22
70103;BME280;57470;50.034;15.256;2023-04-04T06:41:36;100365.28;;;2.88;62.83
70103;BME280;57470;50.034;15.256;2023-04-04T06:44:01;100364.00;;;3.06;60.72
70103;BME280;57470;50.034;15.256;2023-04-04T06:46:27;100358.16;;;2.94;62.52
70103;BME280;57470;50.034;15.256;2023-04-04T06:48:55;100368.00;;;2.85;61.71
70103;BME280;57470;50.034;15.256;2023-04-04T06:51:20;100361.81;;;3.23;60.07
70103;BME280;57470;50.034;15.256;2023-04-04T06:53:46;100358.84;;;3.03;59.33
70103;BME280;57470;50.034;15.256;2023-04-04T06:56:11;100359.72;;;3.01;59.82
70103;BME280;57470;50.034;15.256;2023-04-04T06:58:37;100365.69;;;3.08;59.47
70103;BME280;57470;50.034;15.256;2023-04-04T07:01:03;100362.25;;;3.40;61.25
70103;BME280;57470;50.034;15.256;2023-04-04T07:03:29;100358.13;;;3.65;59.04
70103;BME280;57470;50.034;15.256;2023-04-04T07:05:55;100356.53;;;3.58;58.50
70103;BME280;57470;50.034;15.256;2023-04-04T07:08:20;100361.72;;;3.94;59.48
70103;BME280;57470;50.034;15.256;2023-04-04T07:10:45;100362.19;;;4.39;57.57
70103;BME280;57470;50.034;15.256;2023-04-04T07:13:11;100360.28;;;4.45;57.23
70103;BME280;57470;50.034;15.256;2023-04-04T07:15:36;100360.72;;;4.60;57.51
70103;BME280;57470;50.034;15.256;2023-04-04T07:18:02;100362.59;;;4.25;56.76
70103;BME280;57470;50.034;15.256;2023-04-04T07:20:27;100353.25;;;4.15;56.35
70103;BME280;57470;50.034;15.256;2023-04-04T07:22:52;100357.47;;;3.90;57.30
70103;BME280;57470;50.034;15.256;2023-04-04T07:25:18;100360.84;;;3.62;57.61
70103;BME280;57470;50.034;15.256;2023-04-04T07:27:44;100347.38;;;3.74;57.02
70103;BME280;57470;50.034;15.256;2023-04-04T07:30:10;100352.06;;;3.94;57.52
70103;BME280;57470;50.034;15.256;2023-04-04T07:32:35;100354.94;;;4.18;57.36
70103;BME280;57470;50.034;15.256;2023-04-04T07:35:02;100354.47;;;3.71;56.32
70103;BME280;57470;50.034;15.256;2023-04-04T07:37:29;100357.53;;;3.87;57.52
70103;BME280;57470;50.034;15.256;2023-04-04T07:39:54;100347.50;;;4.32;58.02
70103;BME280;57470;50.034;15.256;2023-04-04T07:42:20;100352.38;;;4.45;57.38
70103;BME280;57470;50.034;15.256;2023-04-04T07:44:50;100346.56;;;4.64;57.44
70103;BME280;57470;50.034;15.256;2023-04-04T07:47:19;100342.81;;;4.71;56.57
70103;BME280;57470;50.034;15.256;2023-04-04T07:49:45;100347.00;;;4.48;56.27
70103;BME280;57470;50.034;15.256;2023-04-04T07:52:10;100341.09;;;4.70;57.07
70103;BME280;57470;50.034;15.256;2023-04-04T07:54:37;100342.91;;;4.68;55.82
70103;BME280;57470;50.034;15.256;2023-04-04T07:57:04;100350.56;;;4.75;57.18
70103;BME280;57470;50.034;15.256;2023-04-04T07:59:31;100343.75;;;4.39;56.16
70103;BME280;57470;50.034;15.256;2023-04-04T08:01:56;100348.19;;;4.38;56.50
70103;BME280;57470;50.034;15.256;2023-04-04T08:04:22;100349.31;;;4.59;57.37
70103;BME280;57470;50.034;15.256;2023-04-04T08:06:47;100344.97;;;4.57;57.43
70103;BME280;57470;50.034;15.256;2023-04-04T08:09:13;100345.22;;;4.49;58.36
70103;BME280;57470;50.034;15.256;2023-04-04T08:11:38;100340.38;;;4.35;58.50
70103;BME280;57470;50.034;15.256;2023-04-04T08:14:03;100329.19;;;4.57;59.01
70103;BME280;57470;50.034;15.256;2023-04-04T08:16:30;100339.44;;;4.66;58.55
70103;BME280;57470;50.034;15.256;2023-04-04T08:18:55;100335.00;;;4.68;57.60
70103;BME280;57470;50.034;15.256;2023-04-04T08:21:20;100340.63;;;4.83;58.51
70103;BME280;57470;50.034;15.256;2023-04-04T08:23:46;100332.78;;;5.10;58.81
70103;BME280;57470;50.034;15.256;2023-04-04T08:26:11;100331.41;;;5.24;55.88
70103;BME280;57470;50.034;15.256;2023-04-04T08:28:37;100330.66;;;5.98;56.64
70103;BME280;57470;50.034;15.256;2023-04-04T08:31:03;100335.53;;;5.33;58.33
70103;BME280;57470;50.034;15.256;2023-04-04T08:33:29;100328.31;;;4.84;57.92
70103;BME280;57470;50.034;15.256;2023-04-04T08:35:55;100326.34;;;4.92;58.46
70103;BME280;57470;50.034;15.256;2023-04-04T08:38:22;100329.38;;;5.06;58.18
70103;BME280;57470;50.034;15.256;2023-04-04T08:40:48;100319.50;;;4.85;57.62
70103;BME280;57470;50.034;15.256;2023-04-04T08:43:14;100319.34;;;4.63;58.90
70103;BME280;57470;50.034;15.256;2023-04-04T08:45:42;100323.69;;;4.64;58.13
70103;BME280;57470;50.034;15.256;2023-04-04T08:48:10;100324.03;;;5.09;59.07
70103;BME280;57470;50.034;15.256;2023-04-04T08:50:38;100313.63;;;4.77;57.83
70103;BME280;57470;50.034;15.256;2023-04-04T08:53:05;100316.50;;;4.97;58.48
70103;BME280;57470;50.034;15.256;2023-04-04T08:55:31;100317.47;;;5.21;57.49
70103;BME280;57470;50.034;15.256;2023-04-04T08:57:57;100310.06;;;5.32;57.02
70103;BME280;57470;50.034;15.256;2023-04-04T09:00:22;100323.16;;;5.35;56.86
70103;BME280;57470;50.034;15.256;2023-04-04T09:02:53;100312.28;;;5.44;55.75
70103;BME280;57470;50.034;15.256;2023-04-04T09:05:22;100308.50;;;5.26;56.47
70103;BME280;57470;50.034;15.256;2023-04-04T09:07:49;100315.91;;;5.15;56.28
70103;BME280;57470;50.034;15.256;2023-04-04T09:10:15;100316.72;;;5.69;55.91
70103;BME280;57470;50.034;15.256;2023-04-04T09:12:43;100313.63;;;5.56;54.83
70103;BME280;57470;50.034;15.256;2023-04-04T09:15:10;100304.38;;;5.44;55.96
70103;BME280;57470;50.034;15.256;2023-04-04T09:17:35;100312.34;;;5.68;54.96
70103;BME280;57470;50.034;15.256;2023-04-04T09:20:02;100303.06;;;5.31;55.73
70103;BME280;57470;50.034;15.256;2023-04-04T09:22:30;100303.66;;;5.39;55.19
70103;BME280;57470;50.034;15.256;2023-04-04T09:24:56;100304.09;;;5.52;54.43
70103;BME280;57470;50.034;15.256;2023-04-04T09:27:22;100300.63;;;5.25;54.58
70103;BME280;57470;50.034;15.256;2023-04-04T09:29:47;100291.47;;;4.56;54.18
70103;BME280;57470;50.034;15.256;2023-04-04T09:32:13;100293.94;;;4.61;54.33
70103;BME280;57470;50.034;15.256;2023-04-04T09:34:40;100303.81;;;5.35;54.42
70103;BME280;57470;50.034;15.256;2023-04-04T09:37:06;100293.22;;;5.61;54.47
70103;BME280;57470;50.034;15.256;2023-04-04T09:39:32;100294.47;;;5.51;55.90
70103;BME280;57470;50.034;15.256;2023-04-04T09:41:59;100292.69;;;5.51;54.99
70103;BME280;57470;50.034;15.256;2023-04-04T09:44:25;100293.97;;;5.64;55.71
70103;BME280;57470;50.034;15.256;2023-04-04T09:46:52;100299.06;;;5.95;55.69
70103;BME280;57470;50.034;15.256;2023-04-04T09:49:18;100296.75;;;7.00;51.93
70103;BME280;57470;50.034;15.256;2023-04-04T09:51:52;100301.53;;;6.90;53.24
70103;BME280;57470;50.034;15.256;2023-04-04T09:54:22;100289.63;;;7.02;55.31
70103;BME280;57470;50.034;15.256;2023-04-04T09:56:48;100286.66;;;6.44;52.46
70103;BME280;57470;50.034;15.256;2023-04-04T09:59:16;100290.69;;;6.76;53.24
70103;BME280;57470;50.034;15.256;2023-04-04T10:01:42;100281.44;;;6.43;52.08
70103;BME280;57470;50.034;15.256;2023-04-04T10:04:09;100283.22;;;6.42;52.46
70103;BME280;57470;50.034;15.256;2023-04-04T10:06:35;100279.94;;;6.12;52.47
70103;BME280;57470;50.034;15.256;2023-04-04T10:09:02;100277.56;;;6.28;52.06
70103;BME280;57470;50.034;15.256;2023-04-04T10:11:33;100285.16;;;6.37;52.44
70103;BME280;57470;50.034;15.256;2023-04-04T10:13:59;100281.06;;;6.52;51.37
70103;BME280;57470;50.034;15.256;2023-04-04T10:16:30;100273.97;;;5.82;52.65
70103;BME280;57470;50.034;15.256;2023-04-04T10:18:57;100270.47;;;6.30;52.12
70103;BME280;57470;50.034;15.256;2023-04-04T10:21:22;100265.22;;;6.95;53.15
70103;BME280;57470;50.034;15.256;2023-04-04T10:23:48;100262.00;;;7.29;55.45
70103;BME280;57470;50.034;15.256;2023-04-04T10:26:14;100255.41;;;7.99;53.40
70103;BME280;57470;50.034;15.256;2023-04-04T10:28:41;100261.47;;;8.58;51.23
70103;BME280;57470;50.034;15.256;2023-04-04T10:31:24;100265.88;;;8.02;50.95
70103;BME280;57470;50.034;15.256;2023-04-04T10:33:55;100257.16;;;8.18;49.47
70103;BME280;57470;50.034;15.256;2023-04-04T10:36:30;100250.94;;;7.80;49.72
70103;BME280;57470;50.034;15.256;2023-04-04T10:39:14;100248.97;;;7.04;49.30
70103;BME280;57470;50.034;15.256;2023-04-04T10:41:44;100252.97;;;6.93;50.97
70103;BME280;57470;50.034;15.256;2023-04-04T10:44:23;100245.41;;;6.84;50.85
70103;BME280;57470;50.034;15.256;2023-04-04T10:46:54;100239.59;;;6.75;50.46
70103;BME280;57470;50.034;15.256;2023-04-04T10:49:22;100235.09;;;7.60;52.40
70103;BME280;57470;50.034;15.256;2023-04-04T10:51:50;100235.41;;;7.52;50.34
70103;BME280;57470;50.034;15.256;2023-04-04T10:54:16;100241.16;;;7.62;48.64
70103;BME280;57470;50.034;15.256;2023-04-04T10:56:43;100234.81;;;7.66;48.46
70103;BME280;57470;50.034;15.256;2023-04-04T10:59:12;100235.53;;;8.65;49.07
70103;BME280;57470;50.034;15.256;2023-04-04T11:01:49;100228.81;;;8.58;47.53
70103;BME280;57470;50.034;15.256;2023-04-04T11:04:20;100215.75;;;9.24;48.64
70103;BME280;57470;50.034;15.256;2023-04-04T11:07:12;100223.50;;;8.58;50.95
70103;BME280;57470;50.034;15.256;2023-04-04T11:09:56;100225.25;;;7.23;48.65
70103;BME280;57470;50.034;15.256;2023-04-04T11:12:31;100216.09;;;7.30;48.44
70103;BME280;57470;50.034;15.256;2023-04-04T11:15:07;100226.75;;;8.07;49.05
70103;BME280;57470;50.034;15.256;2023-04-04T11:20:28;100212.69;;;8.97;48.10
70103;BME280;57470;50.034;15.256;2023-04-04T11:23:01;100212.31;;;8.87;46.12
70103;BME280;57470;50.034;15.256;2023-04-04T11:25:30;100208.63;;;9.41;45.23
70103;BME280;57470;50.034;15.256;2023-04-04T11:27:56;100201.47;;;9.44;46.44
70103;BME280;57470;50.034;15.256;2023-04-04T11:30:25;100199.03;;;9.22;48.03
70103;BME280;57470;50.034;15.256;2023-04-04T11:32:56;100194.03;;;9.50;44.42
70103;BME280;57470;50.034;15.256;2023-04-04T11:35:23;100191.81;;;9.58;48.00
70103;BME280;57470;50.034;15.256;2023-04-04T11:40:18;100180.13;;;9.45;46.08
70103;BME280;57470;50.034;15.256;2023-04-04T11:42:43;100187.03;;;9.15;45.95
70103;BME280;57470;50.034;15.256;2023-04-04T11:45:17;100197.22;;;8.35;46.08
70103;BME280;57470;50.034;15.256;2023-04-04T11:47:45;100187.91;;;8.45;47.07
70103;BME280;57470;50.034;15.256;2023-04-04T11:50:13;100191.03;;;8.53;46.59
70103;BME280;57470;50.034;15.256;2023-04-04T11:52:40;100189.28;;;8.71;45.57
70103;BME280;57470;50.034;15.256;2023-04-04T11:55:17;100190.41;;;8.48;47.16
70103;BME280;57470;50.034;15.256;2023-04-04T11:57:45;100188.41;;;8.70;45.37
70103;BME280;57470;50.034;15.256;2023-04-04T12:00:12;100182.88;;;9.44;45.81
70103;BME280;57470;50.034;15.256;2023-04-04T12:02:40;100185.16;;;9.67;44.69
70103;BME280;57470;50.034;15.256;2023-04-04T12:05:07;100175.06;;;10.22;42.94
70103;BME280;57470;50.034;15.256;2023-04-04T12:07:33;100173.69;;;9.16;45.24
70103;BME280;57470;50.034;15.256;2023-04-04T12:10:00;100181.91;;;8.94;44.52
70103;BME280;57470;50.034;15.256;2023-04-04T12:12:27;100175.63;;;8.78;46.04
70103;BME280;57470;50.034;15.256;2023-04-04T12:14:53;100176.63;;;8.58;45.92
70103;BME280;57470;50.034;15.256;2023-04-04T12:17:19;100175.16;;;9.04;44.58
70103;BME280;57470;50.034;15.256;2023-04-04T12:19:44;100179.38;;;8.74;44.86
70103;BME280;57470;50.034;15.256;2023-04-04T12:22:09;100184.84;;;8.88;45.20
70103;BME280;57470;50.034;15.256;2023-04-04T12:24:35;100185.38;;;8.42;45.53
70103;BME280;57470;50.034;15.256;2023-04-04T12:27:01;100180.09;;;8.42;45.75
70103;BME280;57470;50.034;15.256;2023-04-04T12:29:29;100169.41;;;7.68;45.37
70103;BME280;57470;50.034;15.256;2023-04-04T12:32:03;100168.78;;;8.19;45.08
70103;BME280;57470;50.034;15.256;2023-04-04T12:34:32;100168.72;;;8.93;45.59
70103;BME280;57470;50.034;15.256;2023-04-04T12:36:59;100157.53;;;9.21;46.67
70103;BME280;57470;50.034;15.256;2023-04-04T12:39:26;100166.56;;;9.67;44.16
70103;BME280;57470;50.034;15.256;2023-04-04T12:41:56;100159.75;;;9.94;44.24
70103;BME280;57470;50.034;15.256;2023-04-04T12:44:35;100162.63;;;9.08;45.25
70103;BME280;57470;50.034;15.256;2023-04-04T12:47:06;100153.47;;;8.96;43.86
70103;BME280;57470;50.034;15.256;2023-04-04T12:52:03;100155.28;;;8.24;44.01
70103;BME280;57470;50.034;15.256;2023-04-04T12:54:33;100144.38;;;8.13;43.29
70103;BME280;57470;50.034;15.256;2023-04-04T12:57:01;100147.84;;;8.68;42.78